Time;durP1;ratioP1;P1;durP2;ratioP2;P2;SDS_P1;SDS_P2;PMS_P1;PMS_P2;Temp;Humidity;BMP_temperature;BMP_pressure;BME280_temperature;BME280_humidity;BME280_pressure;Samples;Min_cycle;Max_cycle;Signal;HPM_P1;HPM_P2
2023/01/04 00:00:05;;;;;;;3.05;1.23;;;;;;;5.84;68.01;101062.59;10401814;28;20676;-78
2023/01/04 00:05:08;;;;;;;2.45;0.73;;;;;;;6.14;67.08;101060.16;10409943;28;20056;-76
2023/01/04 00:10:11;;;;;;;4.25;1.25;;;;;;;6.08;67.25;101042.66;10405426;28;20049;-78
2023/01/04 00:15:15;;;;;;;2.47;0.93;;;;;;;5.97;67.32;101038.81;10393024;28;20107;-77
2023/01/04 00:20:18;;;;;;;4.60;1.33;;;;;;;5.84;67.34;101039.47;10399396;28;20448;-77
2023/01/04 00:25:21;;;;;;;4.28;1.40;;;;;;;5.79;68.01;101017.50;10405663;28;20124;-78
2023/01/04 00:30:25;;;;;;;9.77;1.35;;;;;;;5.85;67.90;101003.00;10404150;28;20050;-78
2023/01/04 00:35:28;;;;;;;3.75;1.10;;;;;;;5.81;67.72;101001.41;10390842;28;20046;-79
2023/01/04 00:40:47;;;;;;;5.60;1.00;;;;;;;5.88;67.86;100992.19;10396701;28;20053;-79
2023/01/04 00:45:52;;;;;;;4.65;1.48;;;;;;;5.72;68.23;100990.28;10407212;28;20556;-78
2023/01/04 00:50:55;;;;;;;7.28;1.13;;;;;;;5.90;67.60;100964.47;10389450;28;20064;-78
2023/01/04 00:56:01;;;;;;;5.65;2.08;;;;;;;5.91;67.79;100955.53;10395244;28;20053;-77
2023/01/04 01:01:07;;;;;;;2.65;0.98;;;;;;;6.11;67.22;100942.94;10412642;28;20065;-77
2023/01/04 01:06:11;;;;;;;12.32;0.90;;;;;;;5.97;67.75;100929.50;10394798;28;20132;-77
2023/01/04 01:11:14;;;;;;;5.15;1.00;;;;;;;6.34;66.69;100931.91;10385006;28;20070;-77
2023/01/04 01:16:20;;;;;;;4.85;1.13;;;;;;;6.44;66.30;100915.38;10373230;28;20137;-78
2023/01/04 01:21:43;;;;;;;5.35;1.25;;;;;;;6.36;66.50;100908.66;10385903;28;20087;-77
2023/01/04 01:26:46;;;;;;;3.83;1.60;;;;;;;6.46;66.41;100908.16;10417241;28;20053;-78
2023/01/04 01:31:50;;;;;;;5.25;1.30;;;;;;;6.49;66.35;100900.81;10411136;28;20041;-78
2023/01/04 01:36:53;;;;;;;2.97;0.90;;;;;;;6.61;66.13;100888.63;10395723;28;20049;-78
2023/01/04 01:41:56;;;;;;;5.78;1.27;;;;;;;6.38;66.84;100890.75;10376745;28;20467;-78
2023/01/04 01:47:01;;;;;;;3.67;1.00;;;;;;;6.50;66.51;100889.22;10393585;28;20159;-77
2023/01/04 01:52:06;;;;;;;5.32;1.42;;;;;;;6.43;67.02;100874.50;10379856;28;20590;-78
2023/01/04 01:57:14;;;;;;;2.33;0.93;;;;;;;6.32;66.75;100860.88;10378253;28;20049;-76
2023/01/04 02:02:18;;;;;;;11.50;1.50;;;;;;;6.61;66.74;100881.47;10377124;28;20068;-77
2023/01/04 02:07:24;;;;;;;3.30;0.80;;;;;;;6.68;66.29;100847.25;10375878;28;20045;-77
2023/01/04 02:12:27;;;;;;;5.28;1.45;;;;;;;6.62;66.39;100827.13;10390604;28;20044;-77
2023/01/04 02:17:38;;;;;;;4.47;1.13;;;;;;;6.68;66.96;100827.72;10392038;28;20131;-78
2023/01/04 02:23:03;;;;;;;3.15;1.00;;;;;;;6.82;69.52;100801.91;10388524;28;20540;-76
2023/01/04 02:28:16;;;;;;;4.05;1.58;;;;;;;6.36;71.69;100788.59;10391402;28;20070;-76
2023/01/04 02:33:26;;;;;;;;;;;;;;;6.09;73.29;100761.66;10390567;28;20508;-77
2023/01/04 02:38:38;;;;;;;1.67;0.95;;;;;;;5.93;75.58;100767.00;10406353;28;19971;-76
2023/01/04 02:54:32;;;;;;;6.13;1.30;;;;;;;5.87;79.81;100723.78;10402239;28;20050;-79
2023/01/04 02:59:50;;;;;;;3.63;1.23;;;;;;;5.64;81.20;100709.09;10410347;28;20046;-79
2023/01/04 03:10:35;;;;;;;1.92;0.98;;;;;;;5.50;83.77;100696.53;10399557;28;20050;-79
2023/01/04 03:15:42;;;;;;;5.45;2.38;;;;;;;5.63;84.35;100689.56;10401122;28;20041;-80
2023/01/04 03:20:49;;;;;;;34.13;1.65;;;;;;;5.48;84.71;100672.59;10404904;28;20041;-79
2023/01/04 03:36:54;;;;;;;8.43;1.80;;;;;;;5.86;85.68;100647.44;10402728;28;20080;-79
2023/01/04 03:52:53;;;;;;;2.78;1.23;;;;;;;5.91;86.33;100608.03;10391774;28;20069;-78
2023/01/04 03:57:58;;;;;;;3.47;1.90;;;;;;;5.83;87.53;100608.47;10403245;28;20053;-78
2023/01/04 04:03:06;;;;;;;3.72;1.88;;;;;;;6.25;86.01;100596.22;10397667;28;20040;-79
2023/01/04 04:08:29;;;;;;;6.90;2.10;;;;;;;6.04;87.49;100579.72;10417156;28;20470;-78
2023/01/04 04:13:32;;;;;;;4.35;0.95;;;;;;;6.10;86.74;100582.00;10403270;28;20042;-78
2023/01/04 04:18:34;;;;;;;3.70;1.63;;;;;;;6.10;87.38;100570.47;10377331;28;20053;-79
2023/01/04 04:23:38;;;;;;;4.20;1.63;;;;;;;6.29;87.75;100572.91;10383578;28;20096;-78
2023/01/04 04:28:42;;;;;;;2.67;1.48;;;;;;;6.17;88.39;100555.81;10409716;28;20040;-78
2023/01/04 04:33:45;;;;;;;6.20;1.70;;;;;;;6.46;87.61;100548.72;10407384;28;20128;-81
2023/01/04 04:38:49;;;;;;;4.53;1.35;;;;;;;5.94;89.95;100538.53;10409732;28;20058;-80
2023/01/04 04:43:52;;;;;;;3.53;0.90;;;;;;;6.47;87.24;100521.06;10416442;28;20056;-81
2023/01/04 04:48:55;;;;;;;2.05;1.23;;;;;;;6.23;89.45;100519.94;10402155;28;20423;-80
2023/01/04 04:54:00;;;;;;;5.10;1.20;;;;;;;6.35;89.75;100493.34;10418349;28;20041;-80
2023/01/04 04:59:02;;;;;;;3.38;1.25;;;;;;;6.65;87.99;100488.88;10412303;28;20072;-80
2023/01/04 05:04:06;;;;;;;3.92;0.82;;;;;;;6.38;89.76;100493.16;10423780;28;20038;-80
2023/01/04 05:09:10;;;;;;;1.65;0.82;;;;;;;6.82;88.29;100483.31;10406989;28;20518;-80
2023/01/04 05:14:13;;;;;;;2.38;0.93;;;;;;;6.54;89.08;100477.03;10414190;28;20141;-80
2023/01/04 05:19:16;;;;;;;2.40;0.60;;;;;;;6.62;90.23;100496.09;10413456;28;20050;-80
2023/01/04 05:24:20;;;;;;;3.08;0.77;;;;;;;6.52;89.63;100486.09;10415514;28;20041;-81
2023/01/04 05:34:46;;;;;;;0.40;0.38;;;;;;;6.34;90.98;100475.63;10415651;28;20053;-80
2023/01/04 05:39:50;;;;;;;1.27;1.00;;;;;;;6.53;90.21;100456.66;10416275;28;20053;-79
2023/01/04 05:44:53;;;;;;;0.90;0.47;;;;;;;6.45;91.83;100458.09;10400702;28;20054;-79
2023/01/04 05:49:56;;;;;;;3.13;0.47;;;;;;;6.49;90.17;100449.78;10411755;28;20076;-79
2023/01/04 05:55:00;;;;;;;2.30;0.88;;;;;;;6.78;89.05;100428.41;10416892;28;20042;-82
2023/01/04 06:00:05;;;;;;;1.02;0.52;;;;;;;6.95;86.50;100432.69;10400581;28;20046;-78
2023/01/04 06:05:14;;;;;;;1.67;0.70;;;;;;;7.03;87.07;100428.53;10407857;28;20133;-81
2023/01/04 06:10:19;;;;;;;0.63;0.60;;;;;;;7.17;86.64;100403.59;10432742;28;20054;-79
2023/01/04 06:15:22;;;;;;;2.13;0.77;;;;;;;6.88;87.75;100418.84;10419980;28;20042;-78
2023/01/04 06:20:24;;;;;;;3.03;0.70;;;;;;;7.13;86.46;100385.19;10398355;28;20061;-79
2023/01/04 06:25:29;;;;;;;1.73;0.63;;;;;;;7.49;84.75;100398.75;10415449;28;20042;-79
2023/01/04 06:30:31;;;;;;;0.80;0.55;;;;;;;7.26;85.50;100386.94;10408286;28;20057;-80
2023/01/04 06:35:34;;;;;;;0.98;0.50;;;;;;;7.52;85.49;100395.03;10421980;28;20053;-78
2023/01/04 06:40:39;;;;;;;0.63;0.63;;;;;;;7.27;85.26;100398.50;10399319;28;20088;-79
2023/01/04 06:45:42;;;;;;;0.77;0.52;;;;;;;7.44;85.47;100386.66;10407757;28;20046;-78
2023/01/04 06:50:45;;;;;;;0.65;0.65;;;;;;;7.46;84.70;100352.66;10418516;28;20077;-78
2023/01/04 06:55:49;;;;;;;3.80;0.65;;;;;;;7.56;85.53;100390.31;10400885;28;20053;-80
2023/01/04 07:00:52;;;;;;;1.15;0.80;;;;;;;7.72;84.72;100375.78;10408308;28;20075;-79
2023/01/04 07:05:55;;;;;;;1.15;0.90;;;;;;;7.42;86.46;100351.16;10424771;28;20069;-80
2023/01/04 07:10:59;;;;;;;1.30;0.93;;;;;;;7.57;85.10;100359.94;10411805;28;20053;-79
2023/01/04 07:16:02;;;;;;;1.25;0.75;;;;;;;7.93;84.28;100348.53;10403444;28;20069;-79
2023/01/04 07:21:06;;;;;;;0.98;0.70;;;;;;;7.45;86.36;100350.97;10417439;28;20068;-79
2023/01/04 07:26:10;;;;;;;1.25;1.05;;;;;;;7.70;85.33;100334.06;10407366;28;20411;-78
2023/01/04 07:31:12;;;;;;;1.23;1.20;;;;;;;7.75;85.41;100334.59;10416752;28;20046;-77
2023/01/04 07:36:15;;;;;;;1.05;0.82;;;;;;;7.93;84.52;100338.66;10402743;28;20045;-78
2023/01/04 07:41:19;;;;;;;1.00;1.00;;;;;;;7.69;86.04;100345.75;10395619;28;20073;-78
2023/01/04 07:46:22;;;;;;;0.80;0.80;;;;;;;7.85;86.07;100318.78;10400686;28;20134;-78
2023/01/04 07:51:26;;;;;;;1.27;0.50;;;;;;;7.49;87.43;100339.97;10412595;28;20136;-78
2023/01/04 07:56:30;;;;;;;0.80;0.80;;;;;;;7.32;89.21;100334.03;10411223;28;20109;-79
2023/01/04 08:01:34;;;;;;;0.80;0.80;;;;;;;7.54;88.33;100355.66;10414030;28;20160;-78
2023/01/04 08:06:38;;;;;;;2.92;1.17;;;;;;;7.77;87.54;100329.16;10381025;28;20082;-78
2023/01/04 08:11:42;;;;;;;1.95;0.80;;;;;;;7.78;88.07;100325.50;10391172;28;20061;-78
2023/01/04 08:16:45;;;;;;;1.00;1.00;;;;;;;7.47;100.00;100343.69;10382757;28;20042;-79
2023/01/04 08:21:48;;;;;;;2.55;1.38;;;;;;;7.37;96.66;100332.75;10404129;28;20066;-77
2023/01/04 08:26:53;;;;;;;1.80;0.90;;;;;;;7.20;97.06;100320.56;10392602;28;20439;-79
2023/01/04 08:31:55;;;;;;;1.55;0.85;;;;;;;7.52;94.77;100320.19;10408791;28;20049;-81
2023/01/04 08:36:58;;;;;;;1.15;1.13;;;;;;;7.54;95.34;100315.56;10404520;28;20476;-81
2023/01/04 08:42:03;;;;;;;1.60;0.85;;;;;;;7.60;95.09;100291.09;10407342;28;20515;-81
2023/01/04 08:47:22;;;;;;;0.80;0.80;;;;;;;7.54;94.84;100302.19;10400445;28;20511;-78
2023/01/04 08:52:25;;;;;;;1.50;0.80;;;;;;;7.89;92.77;100301.53;10399218;28;20045;-78
2023/01/04 08:57:29;;;;;;;0.50;0.50;;;;;;;7.68;93.62;100286.06;10409103;28;20042;-81
2023/01/04 09:02:32;;;;;;;0.90;0.90;;;;;;;7.86;92.04;100312.47;10386554;28;20041;-77
2023/01/04 09:07:35;;;;;;;0.90;0.90;;;;;;;7.87;92.36;100288.28;10425126;28;20053;-77
2023/01/04 09:12:41;;;;;;;1.83;0.90;;;;;;;8.01;90.70;100289.97;10400925;28;20054;-81
2023/01/04 09:17:44;;;;;;;1.90;1.20;;;;;;;8.04;90.30;100283.56;10412383;28;20115;-79
2023/01/04 09:23:07;;;;;;;1.20;0.98;;;;;;;8.28;89.31;100276.44;10413176;28;20088;-80
2023/01/04 09:28:12;;;;;;;0.63;0.63;;;;;;;7.77;92.45;100273.88;10419614;28;20050;-80
2023/01/04 09:33:14;;;;;;;1.92;1.15;;;;;;;8.21;91.17;100259.09;10391806;28;20042;-80
2023/01/04 09:38:17;;;;;;;0.70;0.60;;;;;;;7.91;92.17;100278.22;10401412;28;20501;-81
2023/01/04 09:43:25;;;;;;;1.23;1.13;;;;;;;7.95;92.70;100291.28;10416933;28;20061;-80
2023/01/04 09:48:31;;;;;;;0.77;0.77;;;;;;;8.09;91.18;100270.69;10406435;28;20030;-78
2023/01/04 09:53:39;;;;;;;1.23;1.13;;;;;;;8.52;89.68;100260.38;10412868;28;20087;-80
2023/01/04 09:58:44;;;;;;;0.95;0.82;;;;;;;7.94;93.80;100251.25;10399766;28;20049;-82
2023/01/04 10:03:55;;;;;;;2.20;1.27;;;;;;;7.88;96.48;100241.84;10409057;28;20091;-80
2023/01/04 10:09:02;;;;;;;1.25;0.90;;;;;;;7.90;94.62;100225.72;10420763;28;20046;-82
2023/01/04 10:14:22;;;;;;;1.63;1.20;;;;;;;8.07;99.06;100241.38;10406752;28;20052;-81
2023/01/04 10:19:38;;;;;;;1.58;1.30;;;;;;;7.92;97.75;100239.81;10417959;28;20477;-81
2023/01/04 10:25:17;;;;;;;2.35;1.23;;;;;;;7.91;97.55;100222.91;10417753;28;20045;-80
2023/01/04 10:30:33;;;;;;;1.70;1.60;;;;;;;8.25;97.04;100224.94;10416387;28;20046;-80
2023/01/04 10:35:35;;;;;;;1.42;0.90;;;;;;;8.05;96.11;100213.03;10414065;28;20057;-82
2023/01/04 10:40:40;;;;;;;1.33;0.90;;;;;;;7.67;98.29;100236.22;10417505;28;20037;-81
2023/01/04 10:45:53;;;;;;;1.30;1.20;;;;;;;8.00;97.55;100208.00;10415820;28;20065;-81
2023/01/04 10:50:58;;;;;;;1.10;1.00;;;;;;;8.08;97.26;100204.78;10412686;28;20041;-80
2023/01/04 10:56:18;;;;;;;2.63;1.00;;;;;;;7.91;98.41;100195.31;10426915;28;20104;-81
2023/01/04 11:01:35;;;;;;;1.30;1.10;;;;;;;7.94;98.08;100206.63;10434457;28;20067;-81
2023/01/04 11:06:43;;;;;;;1.25;1.10;;;;;;;7.95;99.39;100231.56;10418654;28;20087;-80
2023/01/04 11:11:47;;;;;;;1.83;1.00;;;;;;;8.08;98.97;100194.06;10407089;28;20045;-79
2023/01/04 11:16:55;;;;;;;1.48;1.38;;;;;;;8.28;97.85;100180.09;10422690;28;20041;-81
2023/01/04 11:22:04;;;;;;;1.58;1.48;;;;;;;8.26;100.00;100183.84;10418582;28;20041;-80
2023/01/04 11:27:15;;;;;;;1.70;1.60;;;;;;;8.22;100.00;100158.25;10399653;28;20049;-79
2023/01/04 11:32:35;;;;;;;2.20;2.10;;;;;;;8.13;100.00;100168.69;10405785;28;20414;-82
2023/01/04 11:37:40;;;;;;;1.63;1.52;;;;;;;8.00;100.00;100159.84;10379323;28;20151;-80
2023/01/04 11:42:44;;;;;;;1.77;1.65;;;;;;;8.13;100.00;100155.31;10379804;28;21516;-81
2023/01/04 11:47:51;;;;;;;2.38;2.15;;;;;;;8.13;100.00;100139.25;10379351;28;20045;-82
2023/01/04 11:52:53;;;;;;;2.47;1.80;;;;;;;8.11;100.00;100164.41;10369383;28;20480;-80
2023/01/04 11:58:06;;;;;;;1.90;1.80;;;;;;;8.35;100.00;100143.84;10352809;28;20045;-81
2023/01/04 12:03:17;;;;;;;2.50;2.30;;;;;;;8.17;100.00;100127.38;10344394;28;20054;-83
2023/01/04 12:11:33;;;;;;;1.83;1.73;;;;;;;8.13;100.00;100100.94;10421053;27;20493;-82
2023/01/04 12:16:46;;;;;;;3.88;2.15;;;;;;;8.23;100.00;100111.78;10448345;28;20045;-82
2023/01/04 12:21:51;;;;;;;1.95;1.85;;;;;;;8.69;99.84;100094.94;10451961;28;20047;-81
2023/01/04 12:26:56;;;;;;;2.65;2.45;;;;;;;8.39;100.00;100098.97;10461933;28;20410;-80
2023/01/04 12:32:32;;;;;;;3.10;2.63;;;;;;;8.38;100.00;100094.59;10457698;28;20451;-81
2023/01/04 12:37:48;;;;;;;1.88;1.77;;;;;;;8.34;100.00;100093.13;10459682;28;20041;-79
2023/01/04 12:43:23;;;;;;;3.55;2.95;;;;;;;8.67;100.00;100088.88;10457801;28;20110;-80
2023/01/04 12:54:05;;;;;;;4.57;2.72;;;;;;;8.64;100.00;100070.31;10480293;28;20098;-79
2023/01/04 12:59:13;;;;;;;1.67;1.58;;;;;;;8.60;100.00;100069.72;10470797;28;20095;-80
2023/01/04 13:04:40;;;;;;;2.15;2.05;;;;;;;8.72;100.00;100043.81;10466432;28;20049;-81
2023/01/04 13:09:50;;;;;;;2.45;1.80;;;;;;;8.80;100.00;100023.50;10493306;28;20060;-79
2023/01/04 13:15:02;;;;;;;3.08;1.63;;;;;;;8.80;100.00;100042.25;10509633;28;20058;-80
2023/01/04 13:20:19;;;;;;;3.20;2.13;;;;;;;8.83;100.00;100019.69;10529061;28;20074;-79
2023/01/04 13:25:24;;;;;;;3.55;1.60;;;;;;;8.77;100.00;100034.44;10499873;28;20051;-81
2023/01/04 13:30:37;;;;;;;4.60;2.72;;;;;;;8.98;100.00;100053.31;10486360;28;20059;-80
2023/01/04 13:35:40;;;;;;;2.83;2.63;;;;;;;9.03;100.00;100039.56;10481464;28;20127;-81
2023/01/04 13:40:47;;;;;;;3.60;3.30;;;;;;;9.12;100.00;100037.97;10486081;28;20052;-81
2023/01/04 13:46:05;;;;;;;2.38;2.22;;;;;;;8.85;100.00;100001.69;10480199;28;20067;-80
2023/01/04 13:51:14;;;;;;;7.30;3.75;;;;;;;9.10;100.00;100005.94;10475699;28;20094;-81
2023/01/04 13:56:20;;;;;;;2.88;2.45;;;;;;;9.08;100.00;100007.03;10482267;28;20056;-80
2023/01/04 14:01:27;;;;;;;3.85;3.53;;;;;;;9.09;100.00;99998.88;10481854;28;20470;-80
2023/01/04 14:06:33;;;;;;;3.47;3.25;;;;;;;8.94;100.00;100014.38;10473571;28;20048;-79
2023/01/04 14:12:01;;;;;;;3.95;3.55;;;;;;;9.15;99.46;100005.56;10473540;28;20049;-79
2023/01/04 14:17:22;;;;;;;4.30;3.92;;;;;;;9.31;98.56;100006.00;10467609;28;20079;-78
2023/01/04 14:22:41;;;;;;;4.00;3.70;;;;;;;9.19;100.00;100032.00;10470115;28;20528;-81
2023/01/04 14:27:44;;;;;;;3.53;3.22;;;;;;;9.16;100.00;100031.38;10465807;28;20528;-79
2023/01/04 14:32:56;;;;;;;4.60;3.35;;;;;;;9.26;99.62;99998.34;10472609;28;20040;-80
2023/01/04 14:38:03;;;;;;;4.78;4.15;;;;;;;9.39;96.80;100022.31;10474549;28;20079;-79
2023/01/04 14:43:34;;;;;;;4.40;4.03;;;;;;;9.41;95.87;100011.50;10500441;28;20633;-78
2023/01/04 14:48:39;;;;;;;3.75;3.50;;;;;;;9.39;94.61;100077.78;10480365;28;22249;-78
2023/01/04 14:53:41;;;;;;;4.40;2.58;;;;;;;9.59;92.86;99991.19;10469966;28;20127;-78
2023/01/04 14:58:45;;;;;;;3.08;2.53;;;;;;;9.77;90.75;100010.25;10481495;28;20082;-78
2023/01/04 15:03:49;;;;;;;4.78;3.28;;;;;;;9.63;90.10;100024.81;10474415;28;20110;-79
2023/01/04 15:08:52;;;;;;;7.15;2.80;;;;;;;9.87;89.21;100007.66;10472855;28;20052;-79
2023/01/04 15:13:55;;;;;;;2.45;2.25;;;;;;;9.89;88.58;100024.50;10469621;28;20118;-79
2023/01/04 15:18:59;;;;;;;5.07;2.05;;;;;;;9.83;89.09;100008.91;10470103;28;20101;-78
2023/01/04 15:24:02;;;;;;;4.60;2.47;;;;;;;9.82;88.54;100060.81;10468515;28;20059;-77
2023/01/04 15:29:07;;;;;;;3.53;2.50;;;;;;;9.79;90.13;99994.03;10464153;28;20056;-77
2023/01/04 15:34:11;;;;;;;5.95;2.78;;;;;;;9.88;90.27;99982.56;10456179;28;20086;-77
2023/01/04 15:39:16;;;;;;;1.77;1.60;;;;;;;9.82;90.06;100000.00;10455742;28;20162;-77
2023/01/04 15:44:19;;;;;;;3.65;2.25;;;;;;;9.64;89.87;100002.38;10448818;28;20054;-77
2023/01/04 15:49:23;;;;;;;5.85;3.13;;;;;;;9.78;89.16;99981.59;10455416;28;20121;-77
2023/01/04 15:54:27;;;;;;;7.03;2.22;;;;;;;9.90;88.19;99994.88;10459767;28;20064;-77
2023/01/04 15:59:30;;;;;;;4.70;2.15;;;;;;;10.00;88.08;99986.88;10461365;28;20733;-77
2023/01/04 16:04:35;;;;;;;2.45;1.80;;;;;;;9.89;88.57;99970.84;10461378;28;20052;-78
2023/01/04 16:09:38;;;;;;;3.50;2.40;;;;;;;10.06;86.58;99985.50;10471570;28;20137;-78
2023/01/04 16:14:41;;;;;;;3.95;2.38;;;;;;;9.83;88.41;99982.91;10470076;28;20140;-78
2023/01/04 16:19:45;;;;;;;2.75;2.42;;;;;;;9.86;87.79;99974.63;10468321;28;20114;-78
2023/01/04 16:24:48;;;;;;;9.70;2.63;;;;;;;10.10;86.16;99985.13;10466394;28;20049;-78
2023/01/04 16:30:13;;;;;;;4.82;2.92;;;;;;;9.86;86.70;99945.13;10464537;28;20131;-78
2023/01/04 16:35:18;;;;;;;4.75;2.10;;;;;;;9.91;87.13;99956.31;10469939;28;20063;-77
2023/01/04 16:40:21;;;;;;;5.15;2.70;;;;;;;10.05;86.62;99940.88;10462908;28;20127;-77
2023/01/04 16:45:23;;;;;;;3.97;2.78;;;;;;;10.13;84.85;99982.19;10456062;28;20600;-77
2023/01/04 16:50:27;;;;;;;4.78;1.85;;;;;;;10.15;84.28;99958.75;10453756;28;20139;-77
2023/01/04 16:55:30;;;;;;;3.90;1.90;;;;;;;10.16;84.07;99967.66;10462281;28;20044;-77
2023/01/04 17:00:33;;;;;;;3.47;2.22;;;;;;;10.35;83.17;99964.22;10460773;28;20118;-77
2023/01/04 17:05:40;;;;;;;4.97;2.00;;;;;;;10.15;83.29;99953.38;10468458;28;20044;-76
2023/01/04 17:10:43;;;;;;;3.58;2.00;;;;;;;10.27;82.67;99972.09;10462298;28;20055;-76
2023/01/04 17:15:46;;;;;;;4.65;1.55;;;;;;;10.32;81.87;99988.66;10460448;28;20101;-76
2023/01/04 17:20:54;;;;;;;3.45;1.65;;;;;;;10.28;81.67;100006.00;10460500;28;20437;-77
2023/01/04 17:26:19;;;;;;;14.95;2.63;;;;;;;10.21;81.04;99933.22;10458755;28;20518;-77
2023/01/04 17:31:23;;;;;;;3.92;2.50;;;;;;;10.35;81.52;99985.69;10460679;28;20606;-76
2023/01/04 17:36:28;;;;;;;8.40;2.17;;;;;;;10.32;80.61;99973.38;10477357;28;20445;-78
2023/01/04 17:41:31;;;;;;;2.63;1.25;;;;;;;10.27;80.65;99974.78;10466595;28;20373;-78
2023/01/04 17:46:37;;;;;;;5.78;2.80;;;;;;;10.47;80.01;99962.28;10460075;28;20048;-77
2023/01/04 17:51:42;;;;;;;5.70;2.28;;;;;;;10.46;80.24;99949.88;10459979;28;20052;-77
2023/01/04 17:56:44;;;;;;;11.50;3.38;;;;;;;10.54;79.63;99947.34;10457506;28;20420;-77
2023/01/04 18:01:47;;;;;;;8.32;2.50;;;;;;;10.24;81.27;99945.50;10459091;28;20061;-76
2023/01/04 18:06:52;;;;;;;11.20;2.70;;;;;;;10.56;80.05;99950.78;10462568;28;20276;-75
2023/01/04 18:11:55;;;;;;;5.80;2.70;;;;;;;10.58;79.51;99960.34;10460340;28;20048;-76
2023/01/04 18:16:57;;;;;;;6.72;2.95;;;;;;;10.71;79.63;99946.72;10459153;28;20121;-76
2023/01/04 18:22:03;;;;;;;8.43;3.17;;;;;;;10.42;80.50;99960.00;10460199;28;20182;-76
2023/01/04 18:27:06;;;;;;;10.18;2.97;;;;;;;10.42;79.99;99945.72;10462129;28;20191;-76
2023/01/04 18:32:27;;;;;;;7.70;3.20;;;;;;;10.30;80.42;99953.88;10456991;28;20555;-76
2023/01/04 18:37:31;;;;;;;14.60;3.50;;;;;;;10.32;80.38;99946.53;10456998;28;20052;-77
2023/01/04 18:42:34;;;;;;;9.88;2.90;;;;;;;10.68;78.24;99932.72;10458368;28;20186;-77
2023/01/04 18:47:37;;;;;;;13.57;3.63;;;;;;;10.68;78.29;99919.28;10455989;28;20056;-76
2023/01/04 18:52:41;;;;;;;11.98;3.70;;;;;;;10.57;78.44;99925.59;10458477;28;20040;-77
2023/01/04 18:57:44;;;;;;;7.15;3.33;;;;;;;10.74;77.59;99945.59;10456325;28;20059;-77
2023/01/04 19:02:47;;;;;;;10.93;2.70;;;;;;;10.45;78.75;99957.06;10455265;28;20082;-77
2023/01/04 19:07:51;;;;;;;16.05;4.03;;;;;;;10.54;77.56;99925.88;10458953;28;20072;-76
2023/01/04 19:12:54;;;;;;;10.18;2.92;;;;;;;10.51;77.87;99904.66;10456708;28;20536;-77
2023/01/04 19:17:57;;;;;;;7.43;2.70;;;;;;;10.30;78.15;99916.28;10456501;28;20202;-77
2023/01/04 19:23:01;;;;;;;8.13;2.33;;;;;;;10.46;77.00;99926.53;10455363;28;20050;-77
2023/01/04 19:28:05;;;;;;;11.15;2.58;;;;;;;10.23;78.08;99914.28;10456608;28;20190;-77
2023/01/04 19:33:09;;;;;;;9.60;2.88;;;;;;;10.00;82.47;99918.97;10452656;28;20086;-76
2023/01/04 19:38:15;;;;;;;15.02;3.95;;;;;;;9.15;88.32;99935.88;10453589;28;20105;-77
2023/01/04 19:43:18;;;;;;;24.35;5.68;;;;;;;8.84;99.22;99939.25;10458047;28;20147;-80
2023/01/04 19:48:22;;;;;;;16.75;4.97;;;;;;;8.04;100.00;99933.13;10473331;28;20052;-78
2023/01/04 19:53:26;;;;;;;18.63;6.88;;;;;;;8.58;100.00;99930.66;10476217;28;20603;-79
2023/01/04 19:58:29;;;;;;;21.42;6.32;;;;;;;8.23;100.00;99940.56;10477623;28;20395;-79
2023/01/04 20:03:33;;;;;;;14.52;5.10;;;;;;;8.54;100.00;99950.59;10471658;28;20052;-80
2023/01/04 20:08:38;;;;;;;19.35;4.90;;;;;;;8.51;100.00;99971.41;10470388;28;20421;-79
2023/01/04 20:13:41;;;;;;;17.80;4.60;;;;;;;8.16;100.00;99946.38;10476676;28;20104;-80
2023/01/04 20:18:43;;;;;;;26.33;5.75;;;;;;;8.58;100.00;99973.47;10480696;28;20075;-79
2023/01/04 20:23:47;;;;;;;9.20;3.00;;;;;;;8.56;100.00;99975.41;10470574;28;20079;-79
2023/01/04 20:28:50;;;;;;;28.00;5.85;;;;;;;8.33;100.00;99961.13;10471955;28;20076;-81
2023/01/04 20:33:55;;;;;;;22.60;6.00;;;;;;;8.00;100.00;100007.38;10484562;28;20056;-79
2023/01/04 20:39:01;;;;;;;6.25;2.05;;;;;;;7.42;100.00;99955.66;10480541;28;20088;-79
2023/01/04 20:44:04;;;;;;;11.90;2.30;;;;;;;7.27;100.00;99981.69;10477514;28;20060;-79
2023/01/04 20:49:08;;;;;;;15.30;3.13;;;;;;;7.84;100.00;100015.72;10475667;28;20048;-78
2023/01/04 20:54:12;;;;;;;10.30;3.42;;;;;;;8.07;100.00;100007.78;10474570;28;20500;-79
2023/01/04 20:59:15;;;;;;;11.18;4.05;;;;;;;8.30;100.00;100001.50;10478385;28;20051;-79
2023/01/04 21:04:18;;;;;;;16.30;3.25;;;;;;;8.24;100.00;100001.97;10476060;28;20044;-78
2023/01/04 21:09:22;;;;;;;19.50;4.88;;;;;;;8.58;99.84;100004.72;10475144;28;20147;-78
2023/01/04 21:14:25;;;;;;;13.15;3.65;;;;;;;8.69;98.67;99991.34;10471828;28;20048;-77
2023/01/04 21:19:28;;;;;;;17.83;4.38;;;;;;;8.59;98.28;100020.69;10467796;28;20059;-78
2023/01/04 21:24:33;;;;;;;11.63;4.15;;;;;;;8.79;98.00;99988.78;10468870;28;20046;-79
2023/01/04 21:29:36;;;;;;;25.67;6.40;;;;;;;8.82;97.18;100009.97;10469068;28;20485;-78
2023/01/04 21:34:39;;;;;;;23.45;6.30;;;;;;;8.76;96.68;100000.59;10468364;28;20052;-78
2023/01/04 21:39:43;;;;;;;15.05;5.10;;;;;;;9.05;96.23;100010.78;10456742;28;20659;-78
2023/01/04 21:44:46;;;;;;;23.25;5.30;;;;;;;9.04;95.42;100014.47;10467065;28;20127;-77
2023/01/04 21:49:49;;;;;;;18.00;5.20;;;;;;;9.09;93.36;100022.13;10464416;28;20056;-78
2023/01/04 21:54:54;;;;;;;29.05;5.28;;;;;;;9.19;93.07;100007.88;10466554;28;20055;-78
2023/01/04 21:59:57;;;;;;;24.30;6.30;;;;;;;9.13;92.32;100008.34;10463276;28;20037;-78
2023/01/04 22:05:00;;;;;;;24.23;5.28;;;;;;;8.98;91.18;99989.03;10477600;28;20048;-77
2023/01/04 22:10:05;;;;;;;24.10;4.75;;;;;;;9.21;90.65;100003.22;10468984;28;20123;-77
2023/01/04 22:15:09;;;;;;;24.05;4.75;;;;;;;8.64;93.40;100011.41;10502242;22;20040;-77
2023/01/04 22:20:12;;;;;;;21.42;5.93;;;;;;;8.64;93.37;100008.75;10471955;28;20044;-76
2023/01/04 22:25:16;;;;;;;34.20;6.40;;;;;;;8.66;93.59;100055.84;10474567;28;20131;-76
2023/01/04 22:30:19;;;;;;;21.35;5.03;;;;;;;8.57;92.62;100041.38;10480804;28;20045;-76
2023/01/04 22:35:22;;;;;;;24.15;5.13;;;;;;;8.71;91.24;100036.75;10463968;28;20041;-76
2023/01/04 22:40:26;;;;;;;16.25;4.07;;;;;;;8.99;90.01;100038.94;10467651;28;20041;-76
2023/01/04 22:45:29;;;;;;;15.50;3.58;;;;;;;8.71;89.84;100060.84;10465094;28;20045;-77
2023/01/04 22:50:32;;;;;;;17.92;4.57;;;;;;;8.52;91.31;100040.88;10470219;28;20052;-76
2023/01/04 22:55:40;;;;;;;22.45;4.07;;;;;;;7.94;97.60;100040.81;10475244;28;20136;-77
2023/01/04 23:01:03;;;;;;;26.75;6.50;;;;;;;8.06;99.79;100040.84;10488295;28;20506;-77
2023/01/04 23:06:07;;;;;;;38.28;6.80;;;;;;;8.54;97.11;100028.22;10474032;28;20106;-77
2023/01/04 23:11:14;;;;;;;33.08;6.75;;;;;;;8.56;97.18;100028.97;10472262;28;20056;-77
2023/01/04 23:16:17;;;;;;;16.60;4.97;;;;;;;8.23;98.72;100018.16;10489637;28;20518;-77
2023/01/04 23:21:20;;;;;;;34.88;6.15;;;;;;;8.17;97.96;100027.50;10464833;28;20106;-76
2023/01/04 23:26:26;;;;;;;25.40;6.75;;;;;;;8.36;96.68;100041.19;10471709;28;20124;-77
2023/01/04 23:31:31;;;;;;;29.95;6.10;;;;;;;8.06;97.14;100054.22;10485244;28;20044;-76
2023/01/04 23:36:36;;;;;;;26.20;5.68;;;;;;;8.04;97.66;100049.00;10494957;28;20502;-76
2023/01/04 23:41:46;;;;;;;37.95;5.63;;;;;;;7.93;96.87;100065.84;10480855;28;20554;-77
2023/01/04 23:46:52;;;;;;;29.25;5.53;;;;;;;8.05;94.80;100056.03;10472852;28;20103;-77
2023/01/04 23:51:56;;;;;;;27.42;5.22;;;;;;;8.44;93.99;100059.31;10464646;28;20036;-77
2023/01/04 23:57:02;;;;;;;31.02;5.15;;;;;;;8.42;93.30;100055.03;10484150;28;20048;-77
